Terminal Aerodrome Forecast
Issued by NWS Cleveland, OH

Home | Current Version | Previous Version | Graphics & Text | Print | Product List | Glossary Off
Versions: 1 2 3 4 5 6 7 8 9 10 11 12 13 14 15 16 17 18 19 20 21 22

867
FTUS41 KCLE 110028 AAA
TAFMFD
TAF AMD
KMFD 110028Z 1100/1124 21006KT P6SM OVC035
     FM110500 20005KT 1 1/2SM -SN OVC015
     FM110700 16007KT 1 1/2SM -SN OVC007
     FM111400 15010KT 1/2SM SN FZFG OVC007
     FM111800 15010G20KT 2SM -SN BR OVC015
     FM112200 16015G25KT 4SM -SN BR OVC015=

USA.gov is the U.S. government's official web portal to all federal, state and local government web resources and services.